sensor_id;sensor_type;location;lat;lon;timestamp;temperature;humidity
42199;DHT22;27868;45.184;5.786;2023-04-24T00:02:30;13.90;94.30
42199;DHT22;27868;45.184;5.786;2023-04-24T00:05:14;13.90;94.30
42199;DHT22;27868;45.184;5.786;2023-04-24T00:07:59;13.90;94.30
42199;DHT22;27868;45.184;5.786;2023-04-24T00:10:44;13.90;94.30
42199;DHT22;27868;45.184;5.786;2023-04-24T00:13:28;13.90;94.30
42199;DHT22;27868;45.184;5.786;2023-04-24T00:16:13;13.90;94.30
42199;DHT22;27868;45.184;5.786;2023-04-24T00:18:57;13.90;94.30
42199;DHT22;27868;45.184;5.786;2023-04-24T00:21:42;13.90;94.30
42199;DHT22;27868;45.184;5.786;2023-04-24T00:24:26;13.90;94.30
42199;DHT22;27868;45.184;5.786;2023-04-24T00:27:11;13.90;94.30
42199;DHT22;27868;45.184;5.786;2023-04-24T00:29:56;13.90;94.40
42199;DHT22;27868;45.184;5.786;2023-04-24T00:32:40;13.90;94.40
42199;DHT22;27868;45.184;5.786;2023-04-24T00:35:25;13.90;94.40
42199;DHT22;27868;45.184;5.786;2023-04-24T00:38:09;13.90;94.40
42199;DHT22;27868;45.184;5.786;2023-04-24T00:40:54;13.90;94.40
42199;DHT22;27868;45.184;5.786;2023-04-24T00:43:38;13.90;94.40
42199;DHT22;27868;45.184;5.786;2023-04-24T00:46:23;13.90;94.40
42199;DHT22;27868;45.184;5.786;2023-04-24T00:49:08;13.80;94.40
42199;DHT22;27868;45.184;5.786;2023-04-24T00:51:52;13.80;94.50
42199;DHT22;27868;45.184;5.786;2023-04-24T00:54:38;13.80;94.50
42199;DHT22;27868;45.184;5.786;2023-04-24T00:57:22;13.80;94.40
42199;DHT22;27868;45.184;5.786;2023-04-24T01:00:08;13.80;94.50
42199;DHT22;27868;45.184;5.786;2023-04-24T01:02:56;13.80;94.50
42199;DHT22;27868;45.184;5.786;2023-04-24T01:05:42;13.80;94.50
42199;DHT22;27868;45.184;5.786;2023-04-24T01:08:26;13.80;94.60
42199;DHT22;27868;45.184;5.786;2023-04-24T01:11:12;13.80;94.60
42199;DHT22;27868;45.184;5.786;2023-04-24T01:13:57;13.80;94.60
42199;DHT22;27868;45.184;5.786;2023-04-24T01:16:41;13.80;94.70
42199;DHT22;27868;45.184;5.786;2023-04-24T01:19:26;13.80;94.70
42199;DHT22;27868;45.184;5.786;2023-04-24T01:22:11;13.80;94.70
42199;DHT22;27868;45.184;5.786;2023-04-24T01:24:56;13.80;94.80
42199;DHT22;27868;45.184;5.786;2023-04-24T01:27:41;13.80;94.70
42199;DHT22;27868;45.184;5.786;2023-04-24T01:30:26;13.80;94.70
42199;DHT22;27868;45.184;5.786;2023-04-24T01:33:11;13.80;94.70
42199;DHT22;27868;45.184;5.786;2023-04-24T01:35:55;13.80;94.70
42199;DHT22;27868;45.184;5.786;2023-04-24T01:38:41;13.80;94.60
42199;DHT22;27868;45.184;5.786;2023-04-24T01:41:25;13.90;94.60
42199;DHT22;27868;45.184;5.786;2023-04-24T01:44:10;13.90;94.60
42199;DHT22;27868;45.184;5.786;2023-04-24T01:46:54;13.80;94.60
42199;DHT22;27868;45.184;5.786;2023-04-24T01:49:39;13.80;94.70
42199;DHT22;27868;45.184;5.786;2023-04-24T01:52:23;13.80;94.90
42199;DHT22;27868;45.184;5.786;2023-04-24T01:55:09;13.70;95.00
42199;DHT22;27868;45.184;5.786;2023-04-24T01:57:54;13.70;95.10
42199;DHT22;27868;45.184;5.786;2023-04-24T02:00:39;13.70;94.90
42199;DHT22;27868;45.184;5.786;2023-04-24T02:03:24;13.70;94.90
42199;DHT22;27868;45.184;5.786;2023-04-24T02:06:08;13.70;94.80
42199;DHT22;27868;45.184;5.786;2023-04-24T02:08:53;13.70;94.60
42199;DHT22;27868;45.184;5.786;2023-04-24T02:11:38;13.70;94.60
42199;DHT22;27868;45.184;5.786;2023-04-24T02:14:22;13.70;94.50
42199;DHT22;27868;45.184;5.786;2023-04-24T02:17:07;13.70;94.50
42199;DHT22;27868;45.184;5.786;2023-04-24T02:19:51;13.70;94.50
42199;DHT22;27868;45.184;5.786;2023-04-24T02:22:35;13.70;94.50
42199;DHT22;27868;45.184;5.786;2023-04-24T02:25:20;13.70;94.70
42199;DHT22;27868;45.184;5.786;2023-04-24T02:28:05;13.60;94.70
42199;DHT22;27868;45.184;5.786;2023-04-24T02:30:49;13.60;94.70
42199;DHT22;27868;45.184;5.786;2023-04-24T02:33:34;13.60;94.70
42199;DHT22;27868;45.184;5.786;2023-04-24T02:36:19;13.60;95.00
42199;DHT22;27868;45.184;5.786;2023-04-24T02:39:04;13.60;94.80
42199;DHT22;27868;45.184;5.786;2023-04-24T02:41:49;13.60;94.80
42199;DHT22;27868;45.184;5.786;2023-04-24T02:44:33;13.60;94.80
42199;DHT22;27868;45.184;5.786;2023-04-24T02:47:18;13.60;94.80
42199;DHT22;27868;45.184;5.786;2023-04-24T02:50:03;13.60;94.80
42199;DHT22;27868;45.184;5.786;2023-04-24T02:52:47;13.60;94.90
42199;DHT22;27868;45.184;5.786;2023-04-24T02:55:32;13.50;94.90
42199;DHT22;27868;45.184;5.786;2023-04-24T02:58:16;13.50;94.90
42199;DHT22;27868;45.184;5.786;2023-04-24T03:01:01;13.50;94.90
42199;DHT22;27868;45.184;5.786;2023-04-24T03:03:46;13.50;94.90
42199;DHT22;27868;45.184;5.786;2023-04-24T03:06:31;13.50;94.90
42199;DHT22;27868;45.184;5.786;2023-04-24T03:09:17;13.50;94.90
42199;DHT22;27868;45.184;5.786;2023-04-24T03:12:01;13.50;94.90
42199;DHT22;27868;45.184;5.786;2023-04-24T03:14:46;13.50;94.90
42199;DHT22;27868;45.184;5.786;2023-04-24T03:17:30;13.50;95.00
42199;DHT22;27868;45.184;5.786;2023-04-24T03:20:15;13.50;94.90
42199;DHT22;27868;45.184;5.786;2023-04-24T03:23:00;13.50;94.90
42199;DHT22;27868;45.184;5.786;2023-04-24T03:25:45;13.50;95.00
42199;DHT22;27868;45.184;5.786;2023-04-24T03:28:29;13.50;95.00
42199;DHT22;27868;45.184;5.786;2023-04-24T03:31:14;13.40;95.00
42199;DHT22;27868;45.184;5.786;2023-04-24T03:33:59;13.40;95.00
42199;DHT22;27868;45.184;5.786;2023-04-24T03:36:44;13.40;95.00
42199;DHT22;27868;45.184;5.786;2023-04-24T03:39:28;13.40;95.00
42199;DHT22;27868;45.184;5.786;2023-04-24T03:42:13;13.40;95.00
42199;DHT22;27868;45.184;5.786;2023-04-24T03:44:57;13.40;95.10
42199;DHT22;27868;45.184;5.786;2023-04-24T03:47:42;13.40;95.10
42199;DHT22;27868;45.184;5.786;2023-04-24T03:50:26;13.40;95.30
42199;DHT22;27868;45.184;5.786;2023-04-24T03:53:11;13.40;95.00
42199;DHT22;27868;45.184;5.786;2023-04-24T03:55:55;13.40;94.90
42199;DHT22;27868;45.184;5.786;2023-04-24T03:58:40;13.40;94.90
42199;DHT22;27868;45.184;5.786;2023-04-24T04:01:24;13.30;95.20
42199;DHT22;27868;45.184;5.786;2023-04-24T04:04:09;13.30;95.00
42199;DHT22;27868;45.184;5.786;2023-04-24T04:06:54;13.30;95.40
42199;DHT22;27868;45.184;5.786;2023-04-24T04:09:38;13.30;95.60
42199;DHT22;27868;45.184;5.786;2023-04-24T04:12:23;13.10;95.80
42199;DHT22;27868;45.184;5.786;2023-04-24T04:15:07;13.00;95.90
42199;DHT22;27868;45.184;5.786;2023-04-24T04:17:52;13.10;95.60
42199;DHT22;27868;45.184;5.786;2023-04-24T04:20:36;13.10;95.40
42199;DHT22;27868;45.184;5.786;2023-04-24T04:23:21;13.20;95.30
42199;DHT22;27868;45.184;5.786;2023-04-24T04:26:05;13.20;95.20
42199;DHT22;27868;45.184;5.786;2023-04-24T04:28:50;13.20;95.30
42199;DHT22;27868;45.184;5.786;2023-04-24T04:31:34;13.20;95.30
42199;DHT22;27868;45.184;5.786;2023-04-24T04:34:19;13.20;95.30
42199;DHT22;27868;45.184;5.786;2023-04-24T04:37:04;13.20;95.30
42199;DHT22;27868;45.184;5.786;2023-04-24T04:39:48;13.20;95.30
42199;DHT22;27868;45.184;5.786;2023-04-24T04:42:33;13.20;95.30
42199;DHT22;27868;45.184;5.786;2023-04-24T04:45:24;13.20;95.30
42199;DHT22;27868;45.184;5.786;2023-04-24T04:48:11;13.20;95.20
42199;DHT22;27868;45.184;5.786;2023-04-24T04:50:57;13.30;95.20
42199;DHT22;27868;45.184;5.786;2023-04-24T04:53:42;13.20;95.40
42199;DHT22;27868;45.184;5.786;2023-04-24T04:56:27;13.20;95.70
42199;DHT22;27868;45.184;5.786;2023-04-24T04:59:11;13.20;95.50
42199;DHT22;27868;45.184;5.786;2023-04-24T05:01:56;13.20;95.50
42199;DHT22;27868;45.184;5.786;2023-04-24T05:04:41;13.20;95.40
42199;DHT22;27868;45.184;5.786;2023-04-24T05:07:25;13.20;95.40
42199;DHT22;27868;45.184;5.786;2023-04-24T05:10:10;13.30;95.40
42199;DHT22;27868;45.184;5.786;2023-04-24T05:12:54;13.30;95.50
42199;DHT22;27868;45.184;5.786;2023-04-24T05:15:39;13.20;95.50
42199;DHT22;27868;45.184;5.786;2023-04-24T05:18:24;13.20;95.50
42199;DHT22;27868;45.184;5.786;2023-04-24T05:21:08;13.20;95.60
42199;DHT22;27868;45.184;5.786;2023-04-24T05:23:53;13.20;95.60
42199;DHT22;27868;45.184;5.786;2023-04-24T05:26:37;13.20;95.60
42199;DHT22;27868;45.184;5.786;2023-04-24T05:29:30;13.20;95.70
42199;DHT22;27868;45.184;5.786;2023-04-24T05:32:15;13.20;95.70
42199;DHT22;27868;45.184;5.786;2023-04-24T05:35:00;13.20;95.70
42199;DHT22;27868;45.184;5.786;2023-04-24T05:40:40;13.20;95.80
42199;DHT22;27868;45.184;5.786;2023-04-24T05:43:25;13.80;96.10
42199;DHT22;27868;45.184;5.786;2023-04-24T05:46:17;13.20;95.80
42199;DHT22;27868;45.184;5.786;2023-04-24T05:49:02;13.70;95.90
42199;DHT22;27868;45.184;5.786;2023-04-24T05:51:47;13.30;96.00
42199;DHT22;27868;45.184;5.786;2023-04-24T05:54:31;13.30;95.80
42199;DHT22;27868;45.184;5.786;2023-04-24T05:57:16;13.30;95.70
42199;DHT22;27868;45.184;5.786;2023-04-24T06:00:00;13.30;96.20
42199;DHT22;27868;45.184;5.786;2023-04-24T06:02:45;13.30;95.90
42199;DHT22;27868;45.184;5.786;2023-04-24T06:05:31;13.30;95.80
42199;DHT22;27868;45.184;5.786;2023-04-24T06:08:16;13.30;95.90
42199;DHT22;27868;45.184;5.786;2023-04-24T06:11:00;13.30;96.00
42199;DHT22;27868;45.184;5.786;2023-04-24T06:13:44;13.30;96.00
42199;DHT22;27868;45.184;5.786;2023-04-24T06:16:30;13.30;96.00
42199;DHT22;27868;45.184;5.786;2023-04-24T06:19:14;13.30;96.10
42199;DHT22;27868;45.184;5.786;2023-04-24T06:21:59;13.40;96.00
42199;DHT22;27868;45.184;5.786;2023-04-24T06:24:43;13.40;96.10
42199;DHT22;27868;45.184;5.786;2023-04-24T06:27:28;13.40;96.20
42199;DHT22;27868;45.184;5.786;2023-04-24T06:30:12;13.40;96.30
42199;DHT22;27868;45.184;5.786;2023-04-24T06:32:57;13.40;96.30
42199;DHT22;27868;45.184;5.786;2023-04-24T06:35:42;13.40;96.60
42199;DHT22;27868;45.184;5.786;2023-04-24T06:38:26;13.40;96.50
42199;DHT22;27868;45.184;5.786;2023-04-24T06:41:11;13.40;96.50
42199;DHT22;27868;45.184;5.786;2023-04-24T06:43:56;13.40;96.60
42199;DHT22;27868;45.184;5.786;2023-04-24T06:46:41;13.40;96.60
42199;DHT22;27868;45.184;5.786;2023-04-24T06:49:25;13.40;96.60
42199;DHT22;27868;45.184;5.786;2023-04-24T06:52:10;13.40;96.60
42199;DHT22;27868;45.184;5.786;2023-04-24T06:54:59;13.40;96.60
42199;DHT22;27868;45.184;5.786;2023-04-24T06:57:44;13.50;96.70
42199;DHT22;27868;45.184;5.786;2023-04-24T07:00:29;13.50;96.80
42199;DHT22;27868;45.184;5.786;2023-04-24T07:03:14;13.50;96.70
42199;DHT22;27868;45.184;5.786;2023-04-24T07:05:58;13.50;96.70
42199;DHT22;27868;45.184;5.786;2023-04-24T07:08:43;13.60;96.70
42199;DHT22;27868;45.184;5.786;2023-04-24T07:11:27;13.60;96.60
42199;DHT22;27868;45.184;5.786;2023-04-24T07:14:13;13.60;96.60
42199;DHT22;27868;45.184;5.786;2023-04-24T07:16:57;13.60;96.70
42199;DHT22;27868;45.184;5.786;2023-04-24T07:19:42;13.60;96.60
42199;DHT22;27868;45.184;5.786;2023-04-24T07:22:27;13.70;96.40
42199;DHT22;27868;45.184;5.786;2023-04-24T07:25:12;13.70;96.40
42199;DHT22;27868;45.184;5.786;2023-04-24T07:27:56;13.70;96.30
42199;DHT22;27868;45.184;5.786;2023-04-24T07:30:41;13.70;96.30
42199;DHT22;27868;45.184;5.786;2023-04-24T07:33:26;13.80;96.20
42199;DHT22;27868;45.184;5.786;2023-04-24T07:36:10;13.80;96.20
42199;DHT22;27868;45.184;5.786;2023-04-24T07:38:59;13.80;96.20
42199;DHT22;27868;45.184;5.786;2023-04-24T07:41:44;13.90;96.40
42199;DHT22;27868;45.184;5.786;2023-04-24T07:44:29;13.80;96.40
42199;DHT22;27868;45.184;5.786;2023-04-24T07:47:13;13.90;96.40
42199;DHT22;27868;45.184;5.786;2023-04-24T07:50:00;13.90;96.50
42199;DHT22;27868;45.184;5.786;2023-04-24T07:52:44;13.90;96.50
42199;DHT22;27868;45.184;5.786;2023-04-24T07:55:29;13.90;96.50
42199;DHT22;27868;45.184;5.786;2023-04-24T07:58:13;14.00;96.50
42199;DHT22;27868;45.184;5.786;2023-04-24T08:00:58;14.00;96.60
42199;DHT22;27868;45.184;5.786;2023-04-24T08:03:42;14.00;96.50
42199;DHT22;27868;45.184;5.786;2023-04-24T08:06:27;14.10;96.50
42199;DHT22;27868;45.184;5.786;2023-04-24T08:09:16;14.10;96.50
42199;DHT22;27868;45.184;5.786;2023-04-24T08:12:00;14.20;96.40
42199;DHT22;27868;45.184;5.786;2023-04-24T08:14:45;14.20;96.30
42199;DHT22;27868;45.184;5.786;2023-04-24T08:17:30;14.20;96.40
42199;DHT22;27868;45.184;5.786;2023-04-24T08:20:14;14.20;96.50
42199;DHT22;27868;45.184;5.786;2023-04-24T08:22:59;14.20;96.50
42199;DHT22;27868;45.184;5.786;2023-04-24T08:25:43;14.20;96.50
42199;DHT22;27868;45.184;5.786;2023-04-24T08:28:28;14.20;96.50
42199;DHT22;27868;45.184;5.786;2023-04-24T08:31:13;14.30;96.50
42199;DHT22;27868;45.184;5.786;2023-04-24T08:33:57;14.30;96.70
42199;DHT22;27868;45.184;5.786;2023-04-24T08:36:43;14.10;97.30
42199;DHT22;27868;45.184;5.786;2023-04-24T08:39:27;14.10;97.40
42199;DHT22;27868;45.184;5.786;2023-04-24T08:42:12;14.10;97.00
42199;DHT22;27868;45.184;5.786;2023-04-24T08:44:57;14.30;96.80
42199;DHT22;27868;45.184;5.786;2023-04-24T08:47:42;14.40;96.60
42199;DHT22;27868;45.184;5.786;2023-04-24T08:50:26;14.60;96.30
42199;DHT22;27868;45.184;5.786;2023-04-24T08:53:11;14.60;96.20
42199;DHT22;27868;45.184;5.786;2023-04-24T08:55:56;14.70;96.00
42199;DHT22;27868;45.184;5.786;2023-04-24T08:58:41;14.70;96.00
42199;DHT22;27868;45.184;5.786;2023-04-24T09:01:25;14.70;96.00
42199;DHT22;27868;45.184;5.786;2023-04-24T09:04:10;14.80;96.10
42199;DHT22;27868;45.184;5.786;2023-04-24T09:06:57;14.90;96.00
42199;DHT22;27868;45.184;5.786;2023-04-24T09:09:42;14.90;95.80
42199;DHT22;27868;45.184;5.786;2023-04-24T09:12:26;14.90;95.50
42199;DHT22;27868;45.184;5.786;2023-04-24T09:15:10;14.90;95.40
42199;DHT22;27868;45.184;5.786;2023-04-24T09:17:55;14.90;95.60
42199;DHT22;27868;45.184;5.786;2023-04-24T09:23:44;14.80;96.00
42199;DHT22;27868;45.184;5.786;2023-04-24T09:26:29;14.80;96.20
42199;DHT22;27868;45.184;5.786;2023-04-24T09:29:16;14.80;96.20
42199;DHT22;27868;45.184;5.786;2023-04-24T09:32:11;14.90;96.10
42199;DHT22;27868;45.184;5.786;2023-04-24T09:35:08;14.90;96.00
42199;DHT22;27868;45.184;5.786;2023-04-24T09:37:53;14.90;96.00
42199;DHT22;27868;45.184;5.786;2023-04-24T09:40:41;14.90;96.00
42199;DHT22;27868;45.184;5.786;2023-04-24T09:43:26;15.00;95.90
42199;DHT22;27868;45.184;5.786;2023-04-24T09:46:11;15.00;96.10
42199;DHT22;27868;45.184;5.786;2023-04-24T09:48:55;15.10;96.20
42199;DHT22;27868;45.184;5.786;2023-04-24T09:51:40;15.10;95.60
42199;DHT22;27868;45.184;5.786;2023-04-24T09:54:24;15.10;95.50
42199;DHT22;27868;45.184;5.786;2023-04-24T09:57:09;15.10;95.80
42199;DHT22;27868;45.184;5.786;2023-04-24T09:59:54;15.10;96.00
42199;DHT22;27868;45.184;5.786;2023-04-24T10:02:38;15.10;95.90
42199;DHT22;27868;45.184;5.786;2023-04-24T10:05:23;15.10;95.90
42199;DHT22;27868;45.184;5.786;2023-04-24T10:08:09;15.00;95.50
42199;DHT22;27868;45.184;5.786;2023-04-24T10:10:54;15.00;96.20
42199;DHT22;27868;45.184;5.786;2023-04-24T10:13:39;15.10;95.30
42199;DHT22;27868;45.184;5.786;2023-04-24T10:16:24;15.20;95.50
42199;DHT22;27868;45.184;5.786;2023-04-24T10:19:11;15.20;94.10
42199;DHT22;27868;45.184;5.786;2023-04-24T10:21:57;15.10;94.20
42199;DHT22;27868;45.184;5.786;2023-04-24T10:24:47;15.20;93.70
42199;DHT22;27868;45.184;5.786;2023-04-24T10:27:32;15.30;94.20
42199;DHT22;27868;45.184;5.786;2023-04-24T10:30:19;15.30;94.60
42199;DHT22;27868;45.184;5.786;2023-04-24T10:33:05;15.40;94.40
42199;DHT22;27868;45.184;5.786;2023-04-24T10:35:51;15.40;94.50
42199;DHT22;27868;45.184;5.786;2023-04-24T10:38:36;15.50;93.70
42199;DHT22;27868;45.184;5.786;2023-04-24T10:41:21;15.50;93.30
42199;DHT22;27868;45.184;5.786;2023-04-24T10:44:08;15.60;93.00
42199;DHT22;27868;45.184;5.786;2023-04-24T10:46:53;15.70;93.50
42199;DHT22;27868;45.184;5.786;2023-04-24T10:49:38;15.70;93.40
42199;DHT22;27868;45.184;5.786;2023-04-24T10:52:26;15.80;93.20
42199;DHT22;27868;45.184;5.786;2023-04-24T10:55:44;16.00;93.20
42199;DHT22;27868;45.184;5.786;2023-04-24T10:58:35;16.10;92.30
42199;DHT22;27868;45.184;5.786;2023-04-24T11:01:25;16.20;92.50
42199;DHT22;27868;45.184;5.786;2023-04-24T11:04:13;16.20;91.90
42199;DHT22;27868;45.184;5.786;2023-04-24T11:06:58;16.30;90.20
42199;DHT22;27868;45.184;5.786;2023-04-24T11:09:42;16.50;91.70
42199;DHT22;27868;45.184;5.786;2023-04-24T11:12:27;16.60;91.30
42199;DHT22;27868;45.184;5.786;2023-04-24T11:15:12;16.80;88.30
42199;DHT22;27868;45.184;5.786;2023-04-24T11:17:57;16.90;89.60
42199;DHT22;27868;45.184;5.786;2023-04-24T11:20:42;17.00;90.10
42199;DHT22;27868;45.184;5.786;2023-04-24T11:23:27;17.30;88.10
42199;DHT22;27868;45.184;5.786;2023-04-24T11:26:21;17.40;86.60
42199;DHT22;27868;45.184;5.786;2023-04-24T11:29:07;17.50;85.60
42199;DHT22;27868;45.184;5.786;2023-04-24T11:31:52;17.70;88.40
42199;DHT22;27868;45.184;5.786;2023-04-24T11:34:36;18.00;84.20
42199;DHT22;27868;45.184;5.786;2023-04-24T11:37:23;18.20;87.10
42199;DHT22;27868;45.184;5.786;2023-04-24T11:40:10;18.50;80.70
42199;DHT22;27868;45.184;5.786;2023-04-24T11:42:55;18.60;81.60
42199;DHT22;27868;45.184;5.786;2023-04-24T11:45:47;18.80;82.60
42199;DHT22;27868;45.184;5.786;2023-04-24T11:48:34;19.00;79.20
42199;DHT22;27868;45.184;5.786;2023-04-24T11:51:21;19.10;80.40
42199;DHT22;27868;45.184;5.786;2023-04-24T11:54:07;19.30;79.00
42199;DHT22;27868;45.184;5.786;2023-04-24T11:56:52;19.50;73.00
42199;DHT22;27868;45.184;5.786;2023-04-24T11:59:36;19.40;75.10
42199;DHT22;27868;45.184;5.786;2023-04-24T12:05:07;19.90;76.40
42199;DHT22;27868;45.184;5.786;2023-04-24T12:07:51;19.80;69.90
42199;DHT22;27868;45.184;5.786;2023-04-24T12:10:36;20.00;74.50
42199;DHT22;27868;45.184;5.786;2023-04-24T12:13:21;20.30;73.60
42199;DHT22;27868;45.184;5.786;2023-04-24T12:16:06;20.50;69.00
42199;DHT22;27868;45.184;5.786;2023-04-24T12:18:50;20.40;68.70
42199;DHT22;27868;45.184;5.786;2023-04-24T12:21:35;20.20;59.20
42199;DHT22;27868;45.184;5.786;2023-04-24T12:24:19;20.20;67.50
42199;DHT22;27868;45.184;5.786;2023-04-24T12:27:04;20.30;61.50
42199;DHT22;27868;45.184;5.786;2023-04-24T12:29:52;20.30;64.10
42199;DHT22;27868;45.184;5.786;2023-04-24T12:32:40;20.40;64.90
42199;DHT22;27868;45.184;5.786;2023-04-24T12:35:27;20.70;66.30
42199;DHT22;27868;45.184;5.786;2023-04-24T12:38:12;20.90;66.00
42199;DHT22;27868;45.184;5.786;2023-04-24T12:41:01;20.90;62.10
42199;DHT22;27868;45.184;5.786;2023-04-24T12:43:53;21.10;63.40
42199;DHT22;27868;45.184;5.786;2023-04-24T12:46:38;21.20;63.00
42199;DHT22;27868;45.184;5.786;2023-04-24T12:49:23;21.30;58.80
42199;DHT22;27868;45.184;5.786;2023-04-24T12:52:07;21.00;58.60
42199;DHT22;27868;45.184;5.786;2023-04-24T12:54:53;21.20;59.80
42199;DHT22;27868;45.184;5.786;2023-04-24T12:57:39;21.40;57.80
42199;DHT22;27868;45.184;5.786;2023-04-24T13:00:24;21.30;53.20
42199;DHT22;27868;45.184;5.786;2023-04-24T13:03:08;21.40;59.60
42199;DHT22;27868;45.184;5.786;2023-04-24T13:05:53;21.50;54.40
42199;DHT22;27868;45.184;5.786;2023-04-24T13:08:37;21.60;56.40
42199;DHT22;27868;45.184;5.786;2023-04-24T13:11:22;21.60;55.50
42199;DHT22;27868;45.184;5.786;2023-04-24T13:14:07;21.70;57.20
42199;DHT22;27868;45.184;5.786;2023-04-24T13:16:51;21.80;55.00
42199;DHT22;27868;45.184;5.786;2023-04-24T13:19:36;21.70;50.80
42199;DHT22;27868;45.184;5.786;2023-04-24T13:22:21;21.80;56.30
42199;DHT22;27868;45.184;5.786;2023-04-24T13:25:06;22.00;55.80
42199;DHT22;27868;45.184;5.786;2023-04-24T13:27:51;22.00;53.50
42199;DHT22;27868;45.184;5.786;2023-04-24T13:30:35;22.10;54.10
42199;DHT22;27868;45.184;5.786;2023-04-24T13:33:20;22.20;51.80
42199;DHT22;27868;45.184;5.786;2023-04-24T13:36:04;21.90;52.50
42199;DHT22;27868;45.184;5.786;2023-04-24T13:38:49;22.00;53.10
42199;DHT22;27868;45.184;5.786;2023-04-24T13:41:33;22.00;53.30
42199;DHT22;27868;45.184;5.786;2023-04-24T13:44:19;22.00;53.70
42199;DHT22;27868;45.184;5.786;2023-04-24T13:47:04;22.10;53.70
42199;DHT22;27868;45.184;5.786;2023-04-24T13:49:48;22.10;54.30
42199;DHT22;27868;45.184;5.786;2023-04-24T13:52:33;22.30;54.10
42199;DHT22;27868;45.184;5.786;2023-04-24T13:55:18;22.20;52.60
42199;DHT22;27868;45.184;5.786;2023-04-24T13:58:03;22.30;50.60
42199;DHT22;27868;45.184;5.786;2023-04-24T14:00:47;22.30;50.70
42199;DHT22;27868;45.184;5.786;2023-04-24T14:03:32;22.20;49.00
42199;DHT22;27868;45.184;5.786;2023-04-24T14:06:18;22.20;50.20
42199;DHT22;27868;45.184;5.786;2023-04-24T14:09:02;22.10;49.70
42199;DHT22;27868;45.184;5.786;2023-04-24T14:11:47;22.20;51.70
42199;DHT22;27868;45.184;5.786;2023-04-24T14:14:31;22.10;51.40
42199;DHT22;27868;45.184;5.786;2023-04-24T14:17:16;22.10;49.50
42199;DHT22;27868;45.184;5.786;2023-04-24T14:20:01;22.20;49.10
42199;DHT22;27868;45.184;5.786;2023-04-24T14:22:45;22.10;49.00
42199;DHT22;27868;45.184;5.786;2023-04-24T14:25:30;22.20;47.80
42199;DHT22;27868;45.184;5.786;2023-04-24T14:28:15;22.20;51.70
42199;DHT22;27868;45.184;5.786;2023-04-24T14:31:00;22.20;52.20
42199;DHT22;27868;45.184;5.786;2023-04-24T14:33:45;22.00;48.40
42199;DHT22;27868;45.184;5.786;2023-04-24T14:36:29;22.00;49.60
42199;DHT22;27868;45.184;5.786;2023-04-24T14:39:15;22.10;47.40
42199;DHT22;27868;45.184;5.786;2023-04-24T14:42:00;21.90;49.60
42199;DHT22;27868;45.184;5.786;2023-04-24T14:44:45;22.00;51.20
42199;DHT22;27868;45.184;5.786;2023-04-24T14:47:30;22.00;51.40
42199;DHT22;27868;45.184;5.786;2023-04-24T14:50:14;22.00;51.50
42199;DHT22;27868;45.184;5.786;2023-04-24T14:52:59;21.90;47.80
42199;DHT22;27868;45.184;5.786;2023-04-24T14:55:43;21.80;50.90
42199;DHT22;27868;45.184;5.786;2023-04-24T14:58:28;21.90;50.70
42199;DHT22;27868;45.184;5.786;2023-04-24T15:01:12;21.90;45.90
42199;DHT22;27868;45.184;5.786;2023-04-24T15:03:57;22.10;50.50
42199;DHT22;27868;45.184;5.786;2023-04-24T15:06:41;22.00;50.40
42199;DHT22;27868;45.184;5.786;2023-04-24T15:09:26;21.80;48.80
42199;DHT22;27868;45.184;5.786;2023-04-24T15:12:11;21.80;48.60
42199;DHT22;27868;45.184;5.786;2023-04-24T15:14:57;21.80;50.30
42199;DHT22;27868;45.184;5.786;2023-04-24T15:17:42;21.90;51.30
42199;DHT22;27868;45.184;5.786;2023-04-24T15:20:26;21.70;50.60
42199;DHT22;27868;45.184;5.786;2023-04-24T15:23:11;21.40;48.80
42199;DHT22;27868;45.184;5.786;2023-04-24T15:25:55;21.70;50.00
42199;DHT22;27868;45.184;5.786;2023-04-24T15:28:40;21.70;50.90
42199;DHT22;27868;45.184;5.786;2023-04-24T15:31:25;21.70;50.50
42199;DHT22;27868;45.184;5.786;2023-04-24T15:34:09;21.70;48.30
42199;DHT22;27868;45.184;5.786;2023-04-24T15:36:54;21.70;51.00
42199;DHT22;27868;45.184;5.786;2023-04-24T15:39:38;21.70;51.20
42199;DHT22;27868;45.184;5.786;2023-04-24T15:42:23;21.80;51.20
42199;DHT22;27868;45.184;5.786;2023-04-24T15:45:08;21.80;51.80
42199;DHT22;27868;45.184;5.786;2023-04-24T15:47:53;21.70;51.80
42199;DHT22;27868;45.184;5.786;2023-04-24T15:50:37;21.80;52.20
42199;DHT22;27868;45.184;5.786;2023-04-24T15:53:22;21.50;51.90
42199;DHT22;27868;45.184;5.786;2023-04-24T15:56:06;21.60;52.80
42199;DHT22;27868;45.184;5.786;2023-04-24T15:58:51;21.70;52.30
42199;DHT22;27868;45.184;5.786;2023-04-24T16:01:35;21.70;51.40
42199;DHT22;27868;45.184;5.786;2023-04-24T16:04:20;21.80;51.30
42199;DHT22;27868;45.184;5.786;2023-04-24T16:07:04;21.70;50.40
42199;DHT22;27868;45.184;5.786;2023-04-24T16:09:49;21.60;50.40
42199;DHT22;27868;45.184;5.786;2023-04-24T16:12:34;21.50;48.30
42199;DHT22;27868;45.184;5.786;2023-04-24T16:15:18;21.40;50.30
42199;DHT22;27868;45.184;5.786;2023-04-24T16:18:03;21.40;51.40
42199;DHT22;27868;45.184;5.786;2023-04-24T16:20:48;21.30;49.80
42199;DHT22;27868;45.184;5.786;2023-04-24T16:23:32;21.40;51.70
42199;DHT22;27868;45.184;5.786;2023-04-24T16:26:17;21.20;52.50
42199;DHT22;27868;45.184;5.786;2023-04-24T16:29:01;21.10;53.50
42199;DHT22;27868;45.184;5.786;2023-04-24T16:31:46;20.90;54.10
42199;DHT22;27868;45.184;5.786;2023-04-24T16:34:31;20.80;53.60
42199;DHT22;27868;45.184;5.786;2023-04-24T16:37:16;20.70;54.50
42199;DHT22;27868;45.184;5.786;2023-04-24T16:40:00;20.70;54.10
42199;DHT22;27868;45.184;5.786;2023-04-24T16:42:45;20.60;54.00
42199;DHT22;27868;45.184;5.786;2023-04-24T16:45:30;20.50;53.10
42199;DHT22;27868;45.184;5.786;2023-04-24T16:48:15;20.40;54.40
42199;DHT22;27868;45.184;5.786;2023-04-24T16:50:59;20.30;55.00
42199;DHT22;27868;45.184;5.786;2023-04-24T16:53:44;20.20;55.30
42199;DHT22;27868;45.184;5.786;2023-04-24T16:56:28;20.20;55.30
42199;DHT22;27868;45.184;5.786;2023-04-24T16:59:12;20.20;55.60
42199;DHT22;27868;45.184;5.786;2023-04-24T17:01:57;20.10;54.10
42199;DHT22;27868;45.184;5.786;2023-04-24T17:04:41;20.00;55.30
42199;DHT22;27868;45.184;5.786;2023-04-24T17:07:26;20.00;55.20
42199;DHT22;27868;45.184;5.786;2023-04-24T17:10:11;20.10;56.20
42199;DHT22;27868;45.184;5.786;2023-04-24T17:12:55;20.00;56.60
42199;DHT22;27868;45.184;5.786;2023-04-24T17:15:41;19.90;54.60
42199;DHT22;27868;45.184;5.786;2023-04-24T17:18:25;19.90;54.70
42199;DHT22;27868;45.184;5.786;2023-04-24T17:21:10;19.80;54.90
42199;DHT22;27868;45.184;5.786;2023-04-24T17:23:54;19.80;56.20
42199;DHT22;27868;45.184;5.786;2023-04-24T17:26:39;19.70;55.30
42199;DHT22;27868;45.184;5.786;2023-04-24T17:29:24;19.60;56.20
42199;DHT22;27868;45.184;5.786;2023-04-24T17:32:08;19.70;56.40